sensor_id;sensor_type;location;lat;lon;timestamp;P1;durP1;ratioP1;P2;durP2;ratioP2
14306;SDS011;7237;49.500;11.400;2023-04-08T00:01:37;9.67;;;6.97;;
14306;SDS011;7237;49.500;11.400;2023-04-08T00:04:04;8.17;;;7.00;;
14306;SDS011;7237;49.500;11.400;2023-04-08T00:06:33;9.47;;;6.37;;
14306;SDS011;7237;49.500;11.400;2023-04-08T00:09:01;8.23;;;5.90;;
14306;SDS011;7237;49.500;11.400;2023-04-08T00:11:29;7.10;;;6.07;;
14306;SDS011;7237;49.500;11.400;2023-04-08T00:13:56;6.60;;;5.87;;
14306;SDS011;7237;49.500;11.400;2023-04-08T00:16:24;7.03;;;6.33;;
14306;SDS011;7237;49.500;11.400;2023-04-08T00:18:51;7.43;;;6.60;;
14306;SDS011;7237;49.500;11.400;2023-04-08T00:21:18;6.20;;;5.60;;
14306;SDS011;7237;49.500;11.400;2023-04-08T00:23:45;7.10;;;6.13;;
14306;SDS011;7237;49.500;11.400;2023-04-08T00:26:12;6.33;;;5.47;;
14306;SDS011;7237;49.500;11.400;2023-04-08T00:28:41;7.70;;;6.50;;
14306;SDS011;7237;49.500;11.400;2023-04-08T00:31:08;6.90;;;6.20;;
14306;SDS011;7237;49.500;11.400;2023-04-08T00:33:35;7.33;;;5.80;;
14306;SDS011;7237;49.500;11.400;2023-04-08T00:36:02;6.83;;;6.13;;
14306;SDS011;7237;49.500;11.400;2023-04-08T00:38:29;6.90;;;5.93;;
14306;SDS011;7237;49.500;11.400;2023-04-08T00:40:56;7.20;;;5.80;;
14306;SDS011;7237;49.500;11.400;2023-04-08T00:43:24;7.00;;;5.40;;
14306;SDS011;7237;49.500;11.400;2023-04-08T00:45:52;8.07;;;6.30;;
14306;SDS011;7237;49.500;11.400;2023-04-08T00:48:19;6.80;;;5.50;;
14306;SDS011;7237;49.500;11.400;2023-04-08T00:50:47;6.67;;;6.07;;
14306;SDS011;7237;49.500;11.400;2023-04-08T00:53:14;5.80;;;5.10;;
14306;SDS011;7237;49.500;11.400;2023-04-08T00:55:41;6.60;;;5.67;;
14306;SDS011;7237;49.500;11.400;2023-04-08T00:58:08;6.63;;;5.47;;
14306;SDS011;7237;49.500;11.400;2023-04-08T01:00:36;5.70;;;5.10;;
14306;SDS011;7237;49.500;11.400;2023-04-08T01:03:10;6.27;;;5.20;;
14306;SDS011;7237;49.500;11.400;2023-04-08T01:05:39;5.63;;;5.13;;
14306;SDS011;7237;49.500;11.400;2023-04-08T01:08:09;6.47;;;5.07;;
14306;SDS011;7237;49.500;11.400;2023-04-08T01:10:37;5.87;;;5.27;;
14306;SDS011;7237;49.500;11.400;2023-04-08T01:13:08;6.00;;;5.30;;
14306;SDS011;7237;49.500;11.400;2023-04-08T01:15:36;6.63;;;5.87;;
14306;SDS011;7237;49.500;11.400;2023-04-08T01:18:05;6.10;;;5.50;;
14306;SDS011;7237;49.500;11.400;2023-04-08T01:20:34;6.37;;;5.73;;
14306;SDS011;7237;49.500;11.400;2023-04-08T01:23:02;8.50;;;4.90;;
14306;SDS011;7237;49.500;11.400;2023-04-08T01:25:32;6.27;;;5.67;;
14306;SDS011;7237;49.500;11.400;2023-04-08T01:28:02;6.13;;;5.30;;
14306;SDS011;7237;49.500;11.400;2023-04-08T01:30:30;5.73;;;5.13;;
14306;SDS011;7237;49.500;11.400;2023-04-08T01:32:58;6.33;;;5.67;;
14306;SDS011;7237;49.500;11.400;2023-04-08T01:35:26;10.27;;;5.00;;
14306;SDS011;7237;49.500;11.400;2023-04-08T01:37:53;5.80;;;5.07;;
14306;SDS011;7237;49.500;11.400;2023-04-08T01:40:21;5.93;;;5.17;;
14306;SDS011;7237;49.500;11.400;2023-04-08T01:42:48;6.90;;;5.23;;
14306;SDS011;7237;49.500;11.400;2023-04-08T01:45:17;5.53;;;4.90;;
14306;SDS011;7237;49.500;11.400;2023-04-08T01:47:45;5.33;;;4.83;;
14306;SDS011;7237;49.500;11.400;2023-04-08T01:50:13;6.13;;;5.03;;
14306;SDS011;7237;49.500;11.400;2023-04-08T01:52:40;8.50;;;5.53;;
14306;SDS011;7237;49.500;11.400;2023-04-08T01:55:09;4.93;;;4.53;;
14306;SDS011;7237;49.500;11.400;2023-04-08T01:57:37;5.83;;;5.30;;
14306;SDS011;7237;49.500;11.400;2023-04-08T02:00:06;7.00;;;4.97;;
14306;SDS011;7237;49.500;11.400;2023-04-08T02:02:36;5.80;;;5.30;;
14306;SDS011;7237;49.500;11.400;2023-04-08T02:05:04;9.17;;;5.40;;
14306;SDS011;7237;49.500;11.400;2023-04-08T02:07:31;5.83;;;5.27;;
14306;SDS011;7237;49.500;11.400;2023-04-08T02:09:58;5.07;;;4.57;;
14306;SDS011;7237;49.500;11.400;2023-04-08T02:12:25;5.77;;;5.17;;
14306;SDS011;7237;49.500;11.400;2023-04-08T02:14:53;6.70;;;4.87;;
14306;SDS011;7237;49.500;11.400;2023-04-08T02:17:23;6.17;;;5.30;;
14306;SDS011;7237;49.500;11.400;2023-04-08T02:19:54;5.97;;;5.37;;
14306;SDS011;7237;49.500;11.400;2023-04-08T02:22:24;5.47;;;4.77;;
14306;SDS011;7237;49.500;11.400;2023-04-08T02:24:54;5.30;;;4.80;;
14306;SDS011;7237;49.500;11.400;2023-04-08T02:27:22;6.33;;;5.03;;
14306;SDS011;7237;49.500;11.400;2023-04-08T02:29:50;5.37;;;4.87;;
14306;SDS011;7237;49.500;11.400;2023-04-08T02:32:19;5.27;;;4.77;;
14306;SDS011;7237;49.500;11.400;2023-04-08T02:34:49;5.10;;;4.70;;
14306;SDS011;7237;49.500;11.400;2023-04-08T02:37:18;5.63;;;4.70;;
14306;SDS011;7237;49.500;11.400;2023-04-08T02:39:45;6.07;;;5.43;;
14306;SDS011;7237;49.500;11.400;2023-04-08T02:42:12;6.03;;;5.43;;
14306;SDS011;7237;49.500;11.400;2023-04-08T02:44:39;5.27;;;4.77;;
14306;SDS011;7237;49.500;11.400;2023-04-08T02:47:06;5.20;;;4.70;;
14306;SDS011;7237;49.500;11.400;2023-04-08T02:49:33;5.30;;;4.70;;
14306;SDS011;7237;49.500;11.400;2023-04-08T02:52:00;5.20;;;4.70;;
14306;SDS011;7237;49.500;11.400;2023-04-08T02:54:28;6.53;;;5.00;;
14306;SDS011;7237;49.500;11.400;2023-04-08T02:56:56;5.93;;;5.33;;
14306;SDS011;7237;49.500;11.400;2023-04-08T02:59:23;6.27;;;5.67;;
14306;SDS011;7237;49.500;11.400;2023-04-08T03:01:50;7.50;;;5.17;;
14306;SDS011;7237;49.500;11.400;2023-04-08T03:04:20;7.07;;;5.10;;
14306;SDS011;7237;49.500;11.400;2023-04-08T03:06:47;7.07;;;5.60;;
14306;SDS011;7237;49.500;11.400;2023-04-08T03:09:14;8.03;;;4.80;;
14306;SDS011;7237;49.500;11.400;2023-04-08T03:11:43;5.50;;;5.00;;
14306;SDS011;7237;49.500;11.400;2023-04-08T03:14:16;5.97;;;5.30;;
14306;SDS011;7237;49.500;11.400;2023-04-08T03:16:43;7.90;;;5.17;;
14306;SDS011;7237;49.500;11.400;2023-04-08T03:19:10;5.90;;;5.30;;
14306;SDS011;7237;49.500;11.400;2023-04-08T03:21:37;5.63;;;5.13;;
14306;SDS011;7237;49.500;11.400;2023-04-08T03:24:04;4.97;;;4.57;;
14306;SDS011;7237;49.500;11.400;2023-04-08T03:26:31;5.87;;;5.27;;
14306;SDS011;7237;49.500;11.400;2023-04-08T03:29:00;6.10;;;5.30;;
14306;SDS011;7237;49.500;11.400;2023-04-08T03:31:27;5.83;;;5.20;;
14306;SDS011;7237;49.500;11.400;2023-04-08T03:33:54;7.23;;;5.30;;
14306;SDS011;7237;49.500;11.400;2023-04-08T03:36:21;6.20;;;5.67;;
14306;SDS011;7237;49.500;11.400;2023-04-08T03:38:48;5.47;;;4.97;;
14306;SDS011;7237;49.500;11.400;2023-04-08T03:41:15;6.00;;;5.40;;
14306;SDS011;7237;49.500;11.400;2023-04-08T03:43:42;9.20;;;5.40;;
14306;SDS011;7237;49.500;11.400;2023-04-08T03:46:11;7.20;;;5.13;;
14306;SDS011;7237;49.500;11.400;2023-04-08T03:48:38;7.43;;;5.70;;
14306;SDS011;7237;49.500;11.400;2023-04-08T03:51:05;5.63;;;5.10;;
14306;SDS011;7237;49.500;11.400;2023-04-08T03:53:32;6.87;;;5.30;;
14306;SDS011;7237;49.500;11.400;2023-04-08T03:55:59;8.00;;;5.47;;
14306;SDS011;7237;49.500;11.400;2023-04-08T03:58:27;8.63;;;5.73;;
14306;SDS011;7237;49.500;11.400;2023-04-08T04:00:54;6.47;;;5.00;;
14306;SDS011;7237;49.500;11.400;2023-04-08T04:03:23;5.57;;;5.03;;
14306;SDS011;7237;49.500;11.400;2023-04-08T04:05:50;5.53;;;4.93;;
14306;SDS011;7237;49.500;11.400;2023-04-08T04:08:17;6.13;;;5.53;;
14306;SDS011;7237;49.500;11.400;2023-04-08T04:10:44;7.10;;;5.63;;
14306;SDS011;7237;49.500;11.400;2023-04-08T04:13:11;5.40;;;4.77;;
14306;SDS011;7237;49.500;11.400;2023-04-08T04:15:38;6.70;;;5.00;;
14306;SDS011;7237;49.500;11.400;2023-04-08T04:18:05;5.60;;;5.10;;
14306;SDS011;7237;49.500;11.400;2023-04-08T04:20:34;6.13;;;4.97;;
14306;SDS011;7237;49.500;11.400;2023-04-08T04:23:02;6.00;;;5.50;;
14306;SDS011;7237;49.500;11.400;2023-04-08T04:25:29;5.83;;;5.23;;
14306;SDS011;7237;49.500;11.400;2023-04-08T04:27:56;6.87;;;5.20;;
14306;SDS011;7237;49.500;11.400;2023-04-08T04:30:27;6.13;;;5.53;;
14306;SDS011;7237;49.500;11.400;2023-04-08T04:32:54;5.93;;;5.33;;
14306;SDS011;7237;49.500;11.400;2023-04-08T04:35:21;5.80;;;5.30;;
14306;SDS011;7237;49.500;11.400;2023-04-08T04:37:50;6.87;;;6.17;;
14306;SDS011;7237;49.500;11.400;2023-04-08T04:40:17;6.80;;;6.13;;
14306;SDS011;7237;49.500;11.400;2023-04-08T04:42:44;6.17;;;5.57;;
14306;SDS011;7237;49.500;11.400;2023-04-08T04:45:11;7.33;;;5.70;;
14306;SDS011;7237;49.500;11.400;2023-04-08T04:47:39;6.27;;;5.67;;
14306;SDS011;7237;49.500;11.400;2023-04-08T04:50:07;6.87;;;6.07;;
14306;SDS011;7237;49.500;11.400;2023-04-08T04:52:34;6.43;;;5.73;;
14306;SDS011;7237;49.500;11.400;2023-04-08T04:55:03;8.03;;;6.47;;
14306;SDS011;7237;49.500;11.400;2023-04-08T04:57:30;6.93;;;6.23;;
14306;SDS011;7237;49.500;11.400;2023-04-08T04:59:57;9.63;;;7.20;;
14306;SDS011;7237;49.500;11.400;2023-04-08T05:02:24;8.83;;;7.80;;
14306;SDS011;7237;49.500;11.400;2023-04-08T05:04:51;8.33;;;7.53;;
14306;SDS011;7237;49.500;11.400;2023-04-08T05:07:19;9.23;;;7.73;;
14306;SDS011;7237;49.500;11.400;2023-04-08T05:09:46;7.97;;;7.13;;
14306;SDS011;7237;49.500;11.400;2023-04-08T05:12:15;8.43;;;7.57;;
14306;SDS011;7237;49.500;11.400;2023-04-08T05:14:42;7.73;;;6.93;;
14306;SDS011;7237;49.500;11.400;2023-04-08T05:17:10;7.60;;;6.47;;
14306;SDS011;7237;49.500;11.400;2023-04-08T05:19:40;8.53;;;6.77;;
14306;SDS011;7237;49.500;11.400;2023-04-08T05:22:07;7.67;;;6.57;;
14306;SDS011;7237;49.500;11.400;2023-04-08T05:24:34;7.27;;;6.43;;
14306;SDS011;7237;49.500;11.400;2023-04-08T05:27:01;6.60;;;5.93;;
14306;SDS011;7237;49.500;11.400;2023-04-08T05:29:29;7.17;;;6.47;;
14306;SDS011;7237;49.500;11.400;2023-04-08T05:31:56;7.37;;;6.47;;
14306;SDS011;7237;49.500;11.400;2023-04-08T05:34:23;7.33;;;6.63;;
14306;SDS011;7237;49.500;11.400;2023-04-08T05:36:50;6.73;;;6.10;;
14306;SDS011;7237;49.500;11.400;2023-04-08T05:39:18;6.93;;;6.00;;
14306;SDS011;7237;49.500;11.400;2023-04-08T05:41:45;7.20;;;6.50;;
14306;SDS011;7237;49.500;11.400;2023-04-08T05:44:12;9.27;;;6.67;;
14306;SDS011;7237;49.500;11.400;2023-04-08T05:46:40;6.80;;;6.10;;
14306;SDS011;7237;49.500;11.400;2023-04-08T05:49:07;6.70;;;6.00;;
14306;SDS011;7237;49.500;11.400;2023-04-08T05:51:35;6.97;;;6.27;;
14306;SDS011;7237;49.500;11.400;2023-04-08T05:54:02;8.70;;;6.40;;
14306;SDS011;7237;49.500;11.400;2023-04-08T05:56:29;7.33;;;6.17;;
14306;SDS011;7237;49.500;11.400;2023-04-08T05:58:56;7.13;;;5.83;;
14306;SDS011;7237;49.500;11.400;2023-04-08T06:01:23;6.97;;;6.27;;
14306;SDS011;7237;49.500;11.400;2023-04-08T06:03:52;6.70;;;5.93;;
14306;SDS011;7237;49.500;11.400;2023-04-08T06:06:20;7.17;;;6.43;;
14306;SDS011;7237;49.500;11.400;2023-04-08T06:08:47;6.17;;;5.57;;
14306;SDS011;7237;49.500;11.400;2023-04-08T06:11:14;8.83;;;5.90;;
14306;SDS011;7237;49.500;11.400;2023-04-08T06:13:41;6.70;;;5.67;;
14306;SDS011;7237;49.500;11.400;2023-04-08T06:16:09;6.47;;;5.87;;
14306;SDS011;7237;49.500;11.400;2023-04-08T06:18:36;6.93;;;6.17;;
14306;SDS011;7237;49.500;11.400;2023-04-08T06:21:04;7.20;;;5.67;;
14306;SDS011;7237;49.500;11.400;2023-04-08T06:23:31;7.17;;;5.50;;
14306;SDS011;7237;49.500;11.400;2023-04-08T06:25:58;6.83;;;5.60;;
14306;SDS011;7237;49.500;11.400;2023-04-08T06:28:25;7.03;;;6.33;;
14306;SDS011;7237;49.500;11.400;2023-04-08T06:30:54;6.93;;;6.33;;
14306;SDS011;7237;49.500;11.400;2023-04-08T06:33:21;8.17;;;5.97;;
14306;SDS011;7237;49.500;11.400;2023-04-08T06:35:48;7.10;;;6.00;;
14306;SDS011;7237;49.500;11.400;2023-04-08T06:38:17;7.73;;;5.57;;
14306;SDS011;7237;49.500;11.400;2023-04-08T06:40:44;7.60;;;5.77;;
14306;SDS011;7237;49.500;11.400;2023-04-08T06:43:11;6.87;;;5.53;;
14306;SDS011;7237;49.500;11.400;2023-04-08T06:45:38;6.73;;;6.07;;
14306;SDS011;7237;49.500;11.400;2023-04-08T06:48:06;8.10;;;6.23;;
14306;SDS011;7237;49.500;11.400;2023-04-08T06:50:34;7.20;;;6.10;;
14306;SDS011;7237;49.500;11.400;2023-04-08T06:53:01;8.07;;;5.63;;
14306;SDS011;7237;49.500;11.400;2023-04-08T06:55:29;7.40;;;6.03;;
14306;SDS011;7237;49.500;11.400;2023-04-08T06:57:56;6.43;;;5.83;;
14306;SDS011;7237;49.500;11.400;2023-04-08T07:00:23;6.37;;;5.73;;
14306;SDS011;7237;49.500;11.400;2023-04-08T07:02:50;7.67;;;5.70;;
14306;SDS011;7237;49.500;11.400;2023-04-08T07:05:17;6.80;;;5.83;;
14306;SDS011;7237;49.500;11.400;2023-04-08T07:07:44;6.93;;;6.23;;
14306;SDS011;7237;49.500;11.400;2023-04-08T07:10:11;6.13;;;5.53;;
14306;SDS011;7237;49.500;11.400;2023-04-08T07:12:40;6.60;;;5.57;;
14306;SDS011;7237;49.500;11.400;2023-04-08T07:15:07;7.13;;;5.13;;
14306;SDS011;7237;49.500;11.400;2023-04-08T07:17:34;5.17;;;4.67;;
14306;SDS011;7237;49.500;11.400;2023-04-08T07:20:01;5.80;;;5.20;;
14306;SDS011;7237;49.500;11.400;2023-04-08T07:22:28;5.23;;;4.73;;
14306;SDS011;7237;49.500;11.400;2023-04-08T07:24:56;5.97;;;5.40;;
14306;SDS011;7237;49.500;11.400;2023-04-08T07:27:23;5.73;;;5.13;;
14306;SDS011;7237;49.500;11.400;2023-04-08T07:29:52;5.70;;;5.20;;
14306;SDS011;7237;49.500;11.400;2023-04-08T07:32:20;6.07;;;5.37;;
14306;SDS011;7237;49.500;11.400;2023-04-08T07:34:47;5.20;;;4.70;;
14306;SDS011;7237;49.500;11.400;2023-04-08T07:37:15;5.37;;;4.87;;
14306;SDS011;7237;49.500;11.400;2023-04-08T07:39:43;5.00;;;4.60;;
14306;SDS011;7237;49.500;11.400;2023-04-08T07:42:10;5.93;;;5.10;;
14306;SDS011;7237;49.500;11.400;2023-04-08T07:44:37;4.70;;;4.30;;
14306;SDS011;7237;49.500;11.400;2023-04-08T07:47:05;4.50;;;4.10;;
14306;SDS011;7237;49.500;11.400;2023-04-08T07:49:32;4.77;;;4.20;;
14306;SDS011;7237;49.500;11.400;2023-04-08T07:52:00;4.37;;;3.97;;
14306;SDS011;7237;49.500;11.400;2023-04-08T07:54:28;4.50;;;4.10;;
14306;SDS011;7237;49.500;11.400;2023-04-08T07:56:58;4.30;;;3.80;;
14306;SDS011;7237;49.500;11.400;2023-04-08T07:59:25;4.47;;;4.07;;
14306;SDS011;7237;49.500;11.400;2023-04-08T08:01:52;4.17;;;3.77;;
14306;SDS011;7237;49.500;11.400;2023-04-08T08:04:21;4.80;;;4.37;;
14306;SDS011;7237;49.500;11.400;2023-04-08T08:06:49;4.10;;;3.70;;
14306;SDS011;7237;49.500;11.400;2023-04-08T08:09:16;4.20;;;3.90;;
14306;SDS011;7237;49.500;11.400;2023-04-08T08:11:43;5.33;;;4.83;;
14306;SDS011;7237;49.500;11.400;2023-04-08T08:14:10;5.40;;;4.90;;
14306;SDS011;7237;49.500;11.400;2023-04-08T08:16:37;5.20;;;4.73;;
14306;SDS011;7237;49.500;11.400;2023-04-08T08:19:05;5.03;;;4.53;;
14306;SDS011;7237;49.500;11.400;2023-04-08T08:21:36;4.80;;;4.30;;
14306;SDS011;7237;49.500;11.400;2023-04-08T08:24:03;5.73;;;5.17;;
14306;SDS011;7237;49.500;11.400;2023-04-08T08:26:30;4.77;;;4.23;;
14306;SDS011;7237;49.500;11.400;2023-04-08T08:28:57;4.63;;;4.23;;
14306;SDS011;7237;49.500;11.400;2023-04-08T08:31:25;4.67;;;4.27;;
14306;SDS011;7237;49.500;11.400;2023-04-08T08:33:52;4.57;;;4.17;;
14306;SDS011;7237;49.500;11.400;2023-04-08T08:36:19;5.20;;;4.70;;
14306;SDS011;7237;49.500;11.400;2023-04-08T08:38:47;5.03;;;4.53;;
14306;SDS011;7237;49.500;11.400;2023-04-08T08:41:15;4.27;;;3.87;;
14306;SDS011;7237;49.500;11.400;2023-04-08T08:43:42;4.80;;;4.40;;
14306;SDS011;7237;49.500;11.400;2023-04-08T08:46:10;4.70;;;4.27;;
14306;SDS011;7237;49.500;11.400;2023-04-08T08:48:37;4.67;;;4.27;;
14306;SDS011;7237;49.500;11.400;2023-04-08T08:51:06;4.60;;;4.20;;
14306;SDS011;7237;49.500;11.400;2023-04-08T08:53:33;4.30;;;3.83;;
14306;SDS011;7237;49.500;11.400;2023-04-08T08:56:02;4.30;;;4.00;;
14306;SDS011;7237;49.500;11.400;2023-04-08T08:58:29;4.43;;;4.03;;
14306;SDS011;7237;49.500;11.400;2023-04-08T09:00:56;4.40;;;4.00;;
14306;SDS011;7237;49.500;11.400;2023-04-08T09:03:24;4.97;;;4.23;;
14306;SDS011;7237;49.500;11.400;2023-04-08T09:05:52;4.23;;;3.87;;
14306;SDS011;7237;49.500;11.400;2023-04-08T09:08:23;4.80;;;4.40;;
14306;SDS011;7237;49.500;11.400;2023-04-08T09:10:51;5.40;;;4.70;;
14306;SDS011;7237;49.500;11.400;2023-04-08T09:13:19;4.20;;;3.80;;
14306;SDS011;7237;49.500;11.400;2023-04-08T09:16:00;4.23;;;3.83;;
14306;SDS011;7237;49.500;11.400;2023-04-08T09:18:27;3.93;;;3.63;;
14306;SDS011;7237;49.500;11.400;2023-04-08T09:20:54;4.70;;;4.30;;
14306;SDS011;7237;49.500;11.400;2023-04-08T09:23:22;4.60;;;4.20;;
14306;SDS011;7237;49.500;11.400;2023-04-08T09:25:49;4.60;;;4.20;;
14306;SDS011;7237;49.500;11.400;2023-04-08T09:28:20;4.43;;;4.03;;
14306;SDS011;7237;49.500;11.400;2023-04-08T09:30:47;4.43;;;4.03;;
14306;SDS011;7237;49.500;11.400;2023-04-08T09:33:14;4.63;;;4.23;;
14306;SDS011;7237;49.500;11.400;2023-04-08T09:35:42;5.18;;;4.65;;
14306;SDS011;7237;49.500;11.400;2023-04-08T09:38:10;4.87;;;4.37;;
14306;SDS011;7237;49.500;11.400;2023-04-08T09:40:37;6.13;;;4.60;;
14306;SDS011;7237;49.500;11.400;2023-04-08T09:43:05;5.33;;;3.97;;
14306;SDS011;7237;49.500;11.400;2023-04-08T09:45:35;5.57;;;5.07;;
14306;SDS011;7237;49.500;11.400;2023-04-08T09:48:05;4.83;;;4.43;;
14306;SDS011;7237;49.500;11.400;2023-04-08T09:50:36;4.83;;;4.43;;
14306;SDS011;7237;49.500;11.400;2023-04-08T09:53:07;4.43;;;4.10;;
14306;SDS011;7237;49.500;11.400;2023-04-08T09:55:35;5.17;;;4.63;;
14306;SDS011;7237;49.500;11.400;2023-04-08T09:58:03;5.23;;;4.73;;
14306;SDS011;7237;49.500;11.400;2023-04-08T10:00:32;5.37;;;4.87;;
14306;SDS011;7237;49.500;11.400;2023-04-08T10:03:04;4.90;;;4.40;;
14306;SDS011;7237;49.500;11.400;2023-04-08T10:05:34;6.37;;;4.23;;
14306;SDS011;7237;49.500;11.400;2023-04-08T10:08:02;5.23;;;4.73;;
14306;SDS011;7237;49.500;11.400;2023-04-08T10:10:30;5.20;;;4.40;;
14306;SDS011;7237;49.500;11.400;2023-04-08T10:12:57;6.03;;;4.43;;
14306;SDS011;7237;49.500;11.400;2023-04-08T10:15:24;4.77;;;4.27;;
14306;SDS011;7237;49.500;11.400;2023-04-08T10:17:52;4.37;;;3.97;;
14306;SDS011;7237;49.500;11.400;2023-04-08T10:23:06;4.50;;;4.10;;
14306;SDS011;7237;49.500;11.400;2023-04-08T10:25:34;4.17;;;3.83;;
14306;SDS011;7237;49.500;11.400;2023-04-08T10:28:01;4.17;;;3.87;;
14306;SDS011;7237;49.500;11.400;2023-04-08T10:30:48;4.07;;;3.67;;
14306;SDS011;7237;49.500;11.400;2023-04-08T10:33:16;4.00;;;3.70;;
14306;SDS011;7237;49.500;11.400;2023-04-08T10:35:46;3.80;;;3.50;;
14306;SDS011;7237;49.500;11.400;2023-04-08T10:38:15;4.60;;;4.20;;
14306;SDS011;7237;49.500;11.400;2023-04-08T10:40:42;4.77;;;4.33;;
14306;SDS011;7237;49.500;11.400;2023-04-08T10:43:11;4.87;;;4.47;;
14306;SDS011;7237;49.500;11.400;2023-04-08T10:45:38;4.73;;;4.30;;
14306;SDS011;7237;49.500;11.400;2023-04-08T10:48:12;4.50;;;4.10;;
14306;SDS011;7237;49.500;11.400;2023-04-08T10:50:39;4.77;;;4.37;;
14306;SDS011;7237;49.500;11.400;2023-04-08T10:53:06;4.70;;;4.30;;
14306;SDS011;7237;49.500;11.400;2023-04-08T10:55:34;4.07;;;3.67;;
14306;SDS011;7237;49.500;11.400;2023-04-08T10:58:05;4.67;;;4.20;;
14306;SDS011;7237;49.500;11.400;2023-04-08T11:00:32;4.73;;;4.33;;
14306;SDS011;7237;49.500;11.400;2023-04-08T11:03:00;4.30;;;4.00;;
14306;SDS011;7237;49.500;11.400;2023-04-08T11:05:27;3.67;;;3.37;;
14306;SDS011;7237;49.500;11.400;2023-04-08T11:07:55;4.50;;;4.10;;
14306;SDS011;7237;49.500;11.400;2023-04-08T11:10:24;4.67;;;4.17;;
14306;SDS011;7237;49.500;11.400;2023-04-08T11:12:54;4.00;;;3.70;;
14306;SDS011;7237;49.500;11.400;2023-04-08T11:15:21;5.23;;;3.83;;
14306;SDS011;7237;49.500;11.400;2023-04-08T11:17:49;4.17;;;3.87;;
14306;SDS011;7237;49.500;11.400;2023-04-08T11:20:17;3.13;;;2.93;;
14306;SDS011;7237;49.500;11.400;2023-04-08T11:22:44;4.17;;;3.77;;
14306;SDS011;7237;49.500;11.400;2023-04-08T11:25:12;4.47;;;4.10;;
14306;SDS011;7237;49.500;11.400;2023-04-08T11:27:40;3.57;;;3.27;;
14306;SDS011;7237;49.500;11.400;2023-04-08T11:30:09;4.50;;;4.10;;
14306;SDS011;7237;49.500;11.400;2023-04-08T11:32:37;4.77;;;4.10;;
14306;SDS011;7237;49.500;11.400;2023-04-08T11:35:05;4.50;;;4.10;;
14306;SDS011;7237;49.500;11.400;2023-04-08T11:37:35;6.43;;;5.80;;
14306;SDS011;7237;49.500;11.400;2023-04-08T11:40:05;4.50;;;4.10;;
14306;SDS011;7237;49.500;11.400;2023-04-08T11:42:32;4.03;;;3.63;;
14306;SDS011;7237;49.500;11.400;2023-04-08T11:44:59;3.93;;;3.63;;
14306;SDS011;7237;49.500;11.400;2023-04-08T11:47:31;4.50;;;4.10;;
14306;SDS011;7237;49.500;11.400;2023-04-08T11:49:58;3.90;;;3.60;;
14306;SDS011;7237;49.500;11.400;2023-04-08T11:52:39;3.93;;;3.63;;
14306;SDS011;7237;49.500;11.400;2023-04-08T11:55:07;4.00;;;3.70;;
14306;SDS011;7237;49.500;11.400;2023-04-08T11:57:34;4.00;;;3.70;;
14306;SDS011;7237;49.500;11.400;2023-04-08T12:00:02;4.60;;;4.20;;
14306;SDS011;7237;49.500;11.400;2023-04-08T12:02:32;4.43;;;4.10;;
14306;SDS011;7237;49.500;11.400;2023-04-08T12:04:59;3.90;;;3.60;;
14306;SDS011;7237;49.500;11.400;2023-04-08T12:07:26;3.87;;;3.57;;
14306;SDS011;7237;49.500;11.400;2023-04-08T12:09:53;4.37;;;3.97;;
14306;SDS011;7237;49.500;11.400;2023-04-08T12:12:20;4.27;;;3.87;;
14306;SDS011;7237;49.500;11.400;2023-04-08T12:14:47;4.73;;;3.87;;
14306;SDS011;7237;49.500;11.400;2023-04-08T12:17:14;4.27;;;3.87;;
14306;SDS011;7237;49.500;11.400;2023-04-08T12:19:43;4.43;;;4.03;;
14306;SDS011;7237;49.500;11.400;2023-04-08T12:22:10;3.87;;;3.57;;
14306;SDS011;7237;49.500;11.400;2023-04-08T12:24:37;3.93;;;3.63;;
14306;SDS011;7237;49.500;11.400;2023-04-08T12:27:04;4.43;;;4.03;;
14306;SDS011;7237;49.500;11.400;2023-04-08T12:29:31;5.73;;;3.30;;
14306;SDS011;7237;49.500;11.400;2023-04-08T12:31:58;3.87;;;3.57;;
14306;SDS011;7237;49.500;11.400;2023-04-08T12:34:26;3.93;;;3.57;;
14306;SDS011;7237;49.500;11.400;2023-04-08T12:36:55;4.03;;;3.73;;
14306;SDS011;7237;49.500;11.400;2023-04-08T12:39:24;3.88;;;3.58;;
14306;SDS011;7237;49.500;11.400;2023-04-08T12:41:50;3.93;;;3.53;;
14306;SDS011;7237;49.500;11.400;2023-04-08T12:44:17;5.13;;;4.00;;
14306;SDS011;7237;49.500;11.400;2023-04-08T12:46:44;3.70;;;3.40;;
14306;SDS011;7237;49.500;11.400;2023-04-08T12:49:11;3.40;;;3.10;;
14306;SDS011;7237;49.500;11.400;2023-04-08T12:51:37;3.03;;;2.73;;
14306;SDS011;7237;49.500;11.400;2023-04-08T12:54:06;3.30;;;3.00;;
14306;SDS011;7237;49.500;11.400;2023-04-08T12:56:33;2.97;;;2.77;;
14306;SDS011;7237;49.500;11.400;2023-04-08T12:59:00;2.80;;;2.60;;
14306;SDS011;7237;49.500;11.400;2023-04-08T13:01:26;3.03;;;2.73;;
14306;SDS011;7237;49.500;11.400;2023-04-08T13:03:54;2.77;;;2.57;;
14306;SDS011;7237;49.500;11.400;2023-04-08T13:06:21;2.70;;;2.50;;
14306;SDS011;7237;49.500;11.400;2023-04-08T13:08:48;3.20;;;2.90;;
14306;SDS011;7237;49.500;11.400;2023-04-08T13:11:16;3.10;;;2.80;;
14306;SDS011;7237;49.500;11.400;2023-04-08T13:13:42;2.90;;;2.70;;
14306;SDS011;7237;49.500;11.400;2023-04-08T13:16:10;2.80;;;2.60;;
14306;SDS011;7237;49.500;11.400;2023-04-08T13:18:38;2.80;;;2.60;;
14306;SDS011;7237;49.500;11.400;2023-04-08T13:21:05;2.73;;;2.53;;
14306;SDS011;7237;49.500;11.400;2023-04-08T13:23:31;2.67;;;2.47;;
14306;SDS011;7237;49.500;11.400;2023-04-08T13:25:58;3.00;;;2.70;;
14306;SDS011;7237;49.500;11.400;2023-04-08T13:28:26;2.47;;;2.27;;
14306;SDS011;7237;49.500;11.400;2023-04-08T13:30:53;2.53;;;2.33;;
14306;SDS011;7237;49.500;11.400;2023-04-08T13:33:20;2.53;;;2.33;;
14306;SDS011;7237;49.500;11.400;2023-04-08T13:35:47;2.33;;;2.13;;
14306;SDS011;7237;49.500;11.400;2023-04-08T13:38:13;3.03;;;2.73;;
14306;SDS011;7237;49.500;11.400;2023-04-08T13:40:40;2.77;;;2.37;;
14306;SDS011;7237;49.500;11.400;2023-04-08T13:43:07;2.77;;;2.47;;
14306;SDS011;7237;49.500;11.400;2023-04-08T13:45:35;2.73;;;2.53;;
14306;SDS011;7237;49.500;11.400;2023-04-08T13:48:02;2.70;;;2.50;;
14306;SDS011;7237;49.500;11.400;2023-04-08T13:50:30;2.47;;;2.27;;
14306;SDS011;7237;49.500;11.400;2023-04-08T13:52:56;2.37;;;2.17;;
14306;SDS011;7237;49.500;11.400;2023-04-08T13:55:23;2.23;;;2.13;;
14306;SDS011;7237;49.500;11.400;2023-04-08T13:57:50;2.37;;;2.17;;
14306;SDS011;7237;49.500;11.400;2023-04-08T14:00:17;2.50;;;2.30;;
14306;SDS011;7237;49.500;11.400;2023-04-08T14:02:46;2.60;;;2.40;;
14306;SDS011;7237;49.500;11.400;2023-04-08T14:05:14;2.50;;;2.20;;
14306;SDS011;7237;49.500;11.400;2023-04-08T14:07:40;2.47;;;2.27;;
14306;SDS011;7237;49.500;11.400;2023-04-08T14:10:08;2.60;;;2.40;;
14306;SDS011;7237;49.500;11.400;2023-04-08T14:12:35;2.30;;;2.17;;
14306;SDS011;7237;49.500;11.400;2023-04-08T14:15:02;2.87;;;2.47;;
14306;SDS011;7237;49.500;11.400;2023-04-08T14:17:29;2.67;;;2.47;;
14306;SDS011;7237;49.500;11.400;2023-04-08T14:19:57;2.77;;;2.57;;
14306;SDS011;7237;49.500;11.400;2023-04-08T14:22:25;2.67;;;2.47;;
14306;SDS011;7237;49.500;11.400;2023-04-08T14:24:51;2.93;;;2.67;;
14306;SDS011;7237;49.500;11.400;2023-04-08T14:27:18;2.60;;;2.40;;
14306;SDS011;7237;49.500;11.400;2023-04-08T14:29:45;2.57;;;2.37;;
14306;SDS011;7237;49.500;11.400;2023-04-08T14:32:11;2.33;;;2.17;;
14306;SDS011;7237;49.500;11.400;2023-04-08T14:34:38;2.60;;;2.40;;
14306;SDS011;7237;49.500;11.400;2023-04-08T14:37:06;2.93;;;2.63;;
14306;SDS011;7237;49.500;11.400;2023-04-08T14:39:33;2.83;;;2.63;;
14306;SDS011;7237;49.500;11.400;2023-04-08T14:41:59;3.20;;;3.00;;
14306;SDS011;7237;49.500;11.400;2023-04-08T14:44:27;3.40;;;3.10;;
14306;SDS011;7237;49.500;11.400;2023-04-08T14:46:53;3.30;;;3.00;;
14306;SDS011;7237;49.500;11.400;2023-04-08T14:49:21;3.30;;;3.00;;
14306;SDS011;7237;49.500;11.400;2023-04-08T14:51:47;3.30;;;3.03;;
14306;SDS011;7237;49.500;11.400;2023-04-08T14:54:15;2.70;;;2.50;;